Wolf Creek Observed Data For Previous 48 Hours

Caption
Day and Hour Reservoir Elevation (behind dam)* Tailwater Elevation (below dam)* Average Hourly Discharge*
5/23/2017 1 AM CDT 723.16 547.26 20
5/23/2017 2 AM CDT 723.16 546.06 20
5/23/2017 3 AM CDT 723.16 545.16 20
5/23/2017 4 AM CDT 723.17 544.37 20
5/23/2017 5 AM CDT 723.17 543.67 20
5/23/2017 6 AM CDT 723.17 543.27 20
5/23/2017 7 AM CDT 723.17 545.97 3,420
5/23/2017 8 AM CDT 723.17 546.37 3,420
5/23/2017 9 AM CDT 723.20 546.50 3,420
5/23/2017 10 AM CDT 723.20 546.60 3,420
5/23/2017 11 AM CDT 723.20 546.80 3,430
5/23/2017 12 PM CDT 723.20 546.90 3,430
5/23/2017 1 PM CDT 723.20 550.40 10,340
5/23/2017 2 PM CDT 723.16 552.36 13,860
5/23/2017 3 PM CDT 723.14 555.54 17,470
5/23/2017 4 PM CDT 723.12 555.92 17,520
5/23/2017 5 PM CDT 723.10 558.10 21,260
5/23/2017 6 PM CDT 723.09 556.95 21,260
5/23/2017 7 PM CDT 723.08 555.80 21,260
5/23/2017 8 PM CDT 723.06 554.65 17,520
5/23/2017 9 PM CDT 723.05 553.50 13,860
5/23/2017 10 PM CDT 723.04 552.35 10,340
5/23/2017 11 PM CDT 723.03 551.20 3,420
5/24/2017 12 AM CDT 723.01 550.05 3,420
5/24/2017 1 AM CDT 723.00 548.90 20
5/24/2017 2 AM CDT 723.02 547.32 20
5/24/2017 3 AM CDT 723.02 546.12 20
5/24/2017 4 AM CDT 723.04 544.84 20
5/24/2017 5 AM CDT 723.04 544.04 20
5/24/2017 6 AM CDT 723.06 543.66 20
5/24/2017 7 AM CDT 723.06 543.46 20
5/24/2017 8 AM CDT 723.06 545.76 20
5/24/2017 9 AM CDT 723.06 545.96 3,420
5/24/2017 10 AM CDT 723.06 546.46 3,420
5/24/2017 11 AM CDT 723.06 548.36 3,410
5/24/2017 12 PM CDT 723.04 553.64 13,900
5/24/2017 1 PM CDT 723.02 553.82 13,900
5/24/2017 2 PM CDT 723.02 554.22 13,940
5/24/2017 3 PM CDT 723.04 554.64 13,940
5/24/2017 4 PM CDT 723.04 554.74 13,940
5/24/2017 5 PM CDT 723.06 554.86 13,940
5/24/2017 6 PM CDT 723.06 554.96 13,940
5/24/2017 7 PM CDT 723.07 554.97 13,940
5/24/2017 8 PM CDT 723.08 552.38 6,940
5/24/2017 9 PM CDT 723.09 550.19 3,460
5/24/2017 10 PM CDT 723.10 549.00 3,450
5/24/2017 11 PM CDT 723.11 546.81 20
5/25/2017 12 AM CDT 723.12 545.82 20
5/25/2017 1 AM CDT 723.14 544.94 20
5/25/2017 2 AM CDT 723.16 544.26 20
5/25/2017 3 AM CDT 723.18 543.68 20
5/25/2017 4 AM CDT 723.20 543.20 20
5/25/2017 5 AM CDT 723.22 542.82 20
5/25/2017 6 AM CDT 723.24 542.54 20

Elevations are in feet above sea level. Discharges are in cubic feet per second and are reported at the end of the hour.